Terminal Aerodrome Forecast
Issued by NWS

Home | Current Version | Previous Version | Text Only | Print | Product List | Glossary On
Versions: 1 2 3 4 5 6 7 8 9 10 11 12 13 14 15 16
000
FTUS44 KTSA 030520
TAFMLC
TAF
KMLC 030520Z 0306/0406 VRB08KT P6SM -RA VCTS BKN050CB
     FM030800 18005KT P6SM BKN050
     FM031200 21006KT 5SM -TSRA BR SCT015 BKN025CB BKN050
     FM031900 20007KT P6SM VCTS BKN035CB PROB30 0321/0402 5SM -TSRA
      BKN030CB
     FM040200 VRB05KT P6SM BKN100 PROB30 0402/0406 -TSRA BKN050CB=

USA.gov is the U.S. government's official web portal to all federal, state and local government web resources and services.